createdAt,value
2018-11-13T00:00:35.061Z,11.00
2018-11-13T00:01:26.056Z,11.00
2018-11-13T00:02:21.735Z,11.00
2018-11-13T00:03:09.415Z,11.00
2018-11-13T00:03:56.831Z,10.90
2018-11-13T00:04:43.595Z,11.00
2018-11-13T00:05:30.651Z,10.90
2018-11-13T00:06:17.977Z,10.90
2018-11-13T00:07:04.816Z,11.00
2018-11-13T00:07:51.721Z,10.90
2018-11-13T00:08:38.851Z,10.90
2018-11-13T00:09:25.928Z,10.90
2018-11-13T00:10:13.342Z,10.90
2018-11-13T00:11:00.473Z,11.00
2018-11-13T00:11:47.601Z,11.00
2018-11-13T00:12:34.479Z,11.00
2018-11-13T00:13:21.541Z,11.00
2018-11-13T00:14:08.550Z,11.00
2018-11-13T00:14:55.480Z,11.00
2018-11-13T00:15:42.439Z,11.00
2018-11-13T00:16:29.363Z,11.00
2018-11-13T00:17:16.407Z,11.00
2018-11-13T00:18:03.568Z,11.00
2018-11-13T00:18:50.603Z,11.00
2018-11-13T00:19:37.594Z,11.00
2018-11-13T00:20:24.602Z,11.00
2018-11-13T00:21:11.603Z,11.00
2018-11-13T00:21:58.768Z,11.00
2018-11-13T00:22:45.806Z,10.90
2018-11-13T00:23:32.551Z,11.00
2018-11-13T00:24:19.451Z,11.00
2018-11-13T00:25:07.989Z,11.00
2018-11-13T00:25:54.990Z,11.00
2018-11-13T00:26:41.962Z,11.00
2018-11-13T00:27:29.007Z,11.00
2018-11-13T00:28:15.849Z,11.00
2018-11-13T00:29:02.934Z,11.00
2018-11-13T00:29:50.002Z,11.00
2018-11-13T00:30:36.918Z,11.00
2018-11-13T00:31:24.056Z,11.00
2018-11-13T00:32:11.011Z,11.00
2018-11-13T00:32:57.920Z,11.00
2018-11-13T00:33:44.579Z,11.00
2018-11-13T00:34:31.666Z,11.00
2018-11-13T00:35:22.592Z,11.00
2018-11-13T00:36:09.793Z,11.00
2018-11-13T00:36:56.972Z,11.10
2018-11-13T00:37:44.750Z,11.00
2018-11-13T00:38:31.536Z,11.10
2018-11-13T00:39:18.888Z,11.10
2018-11-13T00:40:07.420Z,11.10
2018-11-13T00:40:54.284Z,11.10
2018-11-13T00:41:41.652Z,11.00
2018-11-13T00:42:28.780Z,11.00
2018-11-13T00:43:15.758Z,11.10
2018-11-13T00:44:02.439Z,11.00
2018-11-13T00:44:49.443Z,11.00
2018-11-13T00:45:36.479Z,11.00
2018-11-13T00:46:23.569Z,11.00
2018-11-13T00:47:10.602Z,11.00
2018-11-13T00:47:57.682Z,11.00
2018-11-13T00:48:44.578Z,11.00
2018-11-13T00:49:31.451Z,11.00
2018-11-13T00:50:19.663Z,11.00
2018-11-13T00:51:06.518Z,11.00
2018-11-13T00:51:53.824Z,11.00
2018-11-13T00:52:41.098Z,11.00
2018-11-13T00:53:28.171Z,11.10
2018-11-13T00:54:14.868Z,11.00
2018-11-13T00:55:02.168Z,11.00
2018-11-13T00:55:48.823Z,11.00
2018-11-13T00:56:35.885Z,11.10
2018-11-13T00:57:22.913Z,11.00
2018-11-13T00:58:09.940Z,11.00
2018-11-13T00:58:57.082Z,11.00
2018-11-13T00:59:44.135Z,11.00
2018-11-13T01:00:31.167Z,11.00
2018-11-13T01:01:18.336Z,11.00
2018-11-13T01:02:06.175Z,11.00
2018-11-13T01:02:52.669Z,11.00
2018-11-13T01:03:39.596Z,11.00
2018-11-13T01:04:26.677Z,11.00
2018-11-13T01:05:14.864Z,11.00
2018-11-13T01:06:01.542Z,11.00
2018-11-13T01:06:48.659Z,11.00
2018-11-13T01:07:35.417Z,11.00
2018-11-13T01:08:22.491Z,11.00
2018-11-13T01:09:10.069Z,11.00
2018-11-13T01:09:58.665Z,11.00
2018-11-13T01:10:45.735Z,11.00
2018-11-13T01:11:32.731Z,11.00
2018-11-13T01:12:19.874Z,11.00
2018-11-13T01:13:07.078Z,11.00
2018-11-13T01:13:54.440Z,11.00
2018-11-13T01:14:41.397Z,11.00
2018-11-13T01:15:28.553Z,11.00
2018-11-13T01:16:15.657Z,11.00
2018-11-13T01:17:02.814Z,11.00
2018-11-13T01:17:50.340Z,11.00
2018-11-13T01:18:37.553Z,11.00
2018-11-13T01:19:24.704Z,11.00
2018-11-13T01:20:11.883Z,11.00
2018-11-13T01:20:58.916Z,11.00
2018-11-13T01:21:45.796Z,11.00
2018-11-13T01:22:32.998Z,11.00
2018-11-13T01:23:19.639Z,11.00
2018-11-13T01:24:06.766Z,11.00
2018-11-13T01:24:53.799Z,11.00
2018-11-13T01:25:40.774Z,11.00
2018-11-13T01:26:27.763Z,11.00
2018-11-13T01:27:14.831Z,11.00
2018-11-13T01:28:01.907Z,11.00
2018-11-13T01:28:48.859Z,11.00
2018-11-13T01:29:35.861Z,11.00
2018-11-13T01:30:22.874Z,11.00
2018-11-13T01:31:09.956Z,11.00
2018-11-13T01:31:57.067Z,11.00
2018-11-13T01:32:44.521Z,11.00
2018-11-13T01:33:31.643Z,11.00
2018-11-13T01:34:18.479Z,11.00
2018-11-13T01:35:06.347Z,11.00
2018-11-13T01:35:53.581Z,11.00
2018-11-13T01:36:40.617Z,11.00
2018-11-13T01:37:27.590Z,11.00
2018-11-13T01:38:14.620Z,11.00
2018-11-13T01:39:01.706Z,11.00
2018-11-13T01:39:48.632Z,11.00
2018-11-13T01:40:35.695Z,11.00
2018-11-13T01:41:22.538Z,11.00
2018-11-13T01:42:09.516Z,11.00
2018-11-13T01:42:56.523Z,11.00
2018-11-13T01:43:43.537Z,11.00
2018-11-13T01:44:30.228Z,11.00
2018-11-13T01:45:18.276Z,11.00
2018-11-13T01:46:05.560Z,11.00
2018-11-13T01:46:52.636Z,11.00
2018-11-13T01:47:39.915Z,11.00
2018-11-13T01:48:26.744Z,11.00
2018-11-13T01:49:14.395Z,11.00
2018-11-13T01:50:01.374Z,11.00
2018-11-13T01:50:48.367Z,10.90
2018-11-13T01:51:35.385Z,10.90
2018-11-13T01:52:22.209Z,11.00
2018-11-13T01:53:09.274Z,11.00
2018-11-13T01:53:56.307Z,11.00
2018-11-13T01:54:42.992Z,11.00
2018-11-13T01:55:29.905Z,10.90
2018-11-13T01:56:16.825Z,10.90
2018-11-13T01:57:04.222Z,11.00
2018-11-13T01:57:50.969Z,10.90
2018-11-13T01:58:37.788Z,10.90
2018-11-13T01:59:24.626Z,10.90
2018-11-13T02:00:24.532Z,10.90
2018-11-13T02:01:11.432Z,10.90
2018-11-13T02:01:58.257Z,10.90
2018-11-13T02:02:46.443Z,11.00
2018-11-13T02:03:33.305Z,10.90
2018-11-13T02:04:20.129Z,10.90
2018-11-13T02:05:07.231Z,10.90
2018-11-13T02:05:54.186Z,10.90
2018-11-13T02:06:41.134Z,10.90
2018-11-13T02:07:28.842Z,10.90
2018-11-13T02:08:15.628Z,10.90
2018-11-13T02:09:02.642Z,10.90
2018-11-13T02:09:49.577Z,11.00
2018-11-13T02:10:36.639Z,11.00
2018-11-13T02:11:23.529Z,10.90
2018-11-13T02:12:10.598Z,10.90
2018-11-13T02:12:57.567Z,10.90
2018-11-13T02:13:44.519Z,10.90
2018-11-13T02:14:31.554Z,10.90
2018-11-13T02:15:19.107Z,11.00
2018-11-13T02:16:07.207Z,11.00
2018-11-13T02:16:54.069Z,10.90
2018-11-13T02:17:41.526Z,10.90
2018-11-13T02:18:28.617Z,11.00
2018-11-13T02:19:15.770Z,10.90
2018-11-13T02:20:02.891Z,11.00
2018-11-13T02:20:50.017Z,11.00
2018-11-13T02:21:37.441Z,11.00
2018-11-13T02:22:24.328Z,11.00
2018-11-13T02:23:11.537Z,11.00
2018-11-13T02:23:58.615Z,11.00
2018-11-13T02:24:45.551Z,11.00
2018-11-13T02:25:32.560Z,11.00
2018-11-13T02:26:19.620Z,11.00
2018-11-13T02:27:06.685Z,11.00
2018-11-13T02:27:53.672Z,11.00
2018-11-13T02:28:40.844Z,11.00
2018-11-13T02:29:27.739Z,11.00
2018-11-13T02:30:19.213Z,11.00
2018-11-13T02:31:06.148Z,11.00
2018-11-13T02:31:53.320Z,11.00
2018-11-13T02:32:40.993Z,11.00
2018-11-13T02:33:27.835Z,11.00
2018-11-13T02:34:14.682Z,11.00
2018-11-13T02:35:01.909Z,11.00
2018-11-13T02:35:48.671Z,11.00
2018-11-13T02:36:35.644Z,11.00
2018-11-13T02:37:22.582Z,11.00
2018-11-13T02:38:09.598Z,11.00
2018-11-13T02:38:56.589Z,11.00
2018-11-13T02:39:43.723Z,11.00
2018-11-13T02:40:30.623Z,11.00
2018-11-13T02:41:17.706Z,11.00
2018-11-13T02:42:04.671Z,11.00
2018-11-13T02:42:51.517Z,11.00
2018-11-13T02:43:38.603Z,11.00
2018-11-13T02:44:25.544Z,11.00
2018-11-13T02:45:17.061Z,11.00
2018-11-13T02:46:04.088Z,11.00
2018-11-13T02:46:51.199Z,11.00
2018-11-13T02:47:38.939Z,11.00
2018-11-13T02:48:26.038Z,11.00
2018-11-13T02:49:13.391Z,11.00
2018-11-13T02:50:00.296Z,11.00
2018-11-13T02:50:47.487Z,11.00
2018-11-13T02:51:35.053Z,11.00
2018-11-13T02:52:22.306Z,11.00
2018-11-13T02:53:09.211Z,11.00
2018-11-13T02:53:56.295Z,11.00
2018-11-13T02:54:43.501Z,11.00
2018-11-13T02:55:30.316Z,11.00
2018-11-13T02:56:17.578Z,11.00
2018-11-13T02:57:04.669Z,11.00
2018-11-13T02:57:51.923Z,11.00
2018-11-13T02:58:39.044Z,11.00
2018-11-13T02:59:25.958Z,11.00
2018-11-13T03:00:14.944Z,11.00
2018-11-13T03:01:01.908Z,11.00
2018-11-13T03:01:48.835Z,10.90
2018-11-13T03:02:35.718Z,10.90
2018-11-13T03:03:22.862Z,10.90
2018-11-13T03:04:10.473Z,10.90
2018-11-13T03:04:57.339Z,10.90
2018-11-13T03:05:44.227Z,10.90
2018-11-13T03:06:31.070Z,10.90
2018-11-13T03:07:18.152Z,10.90
2018-11-13T03:08:05.255Z,10.90
2018-11-13T03:08:52.292Z,10.90
2018-11-13T03:09:39.282Z,10.90
2018-11-13T03:10:26.310Z,10.90
2018-11-13T03:11:13.591Z,10.90
2018-11-13T03:12:00.658Z,10.90
2018-11-13T03:12:47.602Z,10.90
2018-11-13T03:13:34.530Z,10.90
2018-11-13T03:14:21.601Z,10.90
2018-11-13T03:15:10.591Z,10.90
2018-11-13T03:15:57.605Z,10.90
2018-11-13T03:16:44.476Z,10.90
2018-11-13T03:17:31.372Z,10.90
2018-11-13T03:18:18.567Z,10.90
2018-11-13T03:19:05.915Z,10.90
2018-11-13T03:19:53.320Z,10.90
2018-11-13T03:20:40.501Z,10.90
2018-11-13T03:21:27.611Z,11.00
2018-11-13T03:22:14.611Z,11.00
2018-11-13T03:23:01.655Z,11.00
2018-11-13T03:23:49.089Z,11.00
2018-11-13T03:24:36.270Z,11.00
2018-11-13T03:25:23.375Z,11.00
2018-11-13T03:26:10.611Z,11.00
2018-11-13T03:26:57.937Z,11.00
2018-11-13T03:27:45.171Z,11.00
2018-11-13T03:28:32.398Z,11.00
2018-11-13T03:29:19.944Z,11.00
2018-11-13T03:30:10.319Z,11.00
2018-11-13T03:30:57.486Z,11.00
2018-11-13T03:31:44.486Z,11.00
2018-11-13T03:32:31.273Z,11.00
2018-11-13T03:33:18.397Z,11.00
2018-11-13T03:34:05.072Z,11.00
2018-11-13T03:34:54.095Z,11.00
2018-11-13T03:35:41.529Z,11.10
2018-11-13T03:36:28.264Z,11.00
2018-11-13T03:37:15.207Z,11.00
2018-11-13T03:38:02.425Z,11.00
2018-11-13T03:38:49.565Z,11.00
2018-11-13T03:39:36.553Z,11.00
2018-11-13T03:40:23.570Z,11.00
2018-11-13T03:41:10.521Z,11.00
2018-11-13T03:41:57.642Z,11.10
2018-11-13T03:42:45.159Z,11.00
2018-11-13T03:43:31.966Z,11.00
2018-11-13T03:44:19.224Z,11.00
2018-11-13T03:45:06.831Z,11.00
2018-11-13T03:45:54.056Z,11.00
2018-11-13T03:46:40.788Z,11.00
2018-11-13T03:47:27.811Z,11.00
2018-11-13T03:48:14.929Z,11.00
2018-11-13T03:49:04.971Z,11.00
2018-11-13T03:49:52.089Z,11.10
2018-11-13T03:50:39.286Z,11.00
2018-11-13T03:51:26.612Z,11.00
2018-11-13T03:52:13.648Z,11.00
2018-11-13T03:53:00.646Z,11.00
2018-11-13T03:53:47.846Z,11.10
2018-11-13T03:54:34.978Z,11.10
2018-11-13T03:55:22.109Z,11.10
2018-11-13T03:56:09.215Z,11.10
2018-11-13T03:56:56.375Z,11.10
2018-11-13T03:57:44.444Z,11.10
2018-11-13T03:58:31.574Z,11.10
2018-11-13T03:59:18.677Z,11.10
2018-11-13T04:00:08.432Z,11.10
2018-11-13T04:00:55.383Z,11.10
2018-11-13T04:01:42.693Z,11.10
2018-11-13T04:02:29.712Z,11.10
2018-11-13T04:03:16.791Z,11.10
2018-11-13T04:04:12.543Z,11.10
2018-11-13T04:05:02.550Z,11.10
2018-11-13T04:05:49.665Z,11.10
2018-11-13T04:06:36.444Z,11.10
2018-11-13T04:07:24.031Z,11.10
2018-11-13T04:08:11.166Z,11.10
2018-11-13T04:08:58.273Z,11.10
2018-11-13T04:09:45.379Z,11.10
2018-11-13T04:10:32.201Z,11.10
2018-11-13T04:11:19.245Z,11.10
2018-11-13T04:12:06.445Z,11.10
2018-11-13T04:12:56.203Z,11.10
2018-11-13T04:13:43.179Z,11.10
2018-11-13T04:14:30.007Z,11.10
2018-11-13T04:15:18.661Z,11.10
2018-11-13T04:16:05.825Z,11.10
2018-11-13T04:16:52.582Z,11.10
2018-11-13T04:17:39.982Z,11.10
2018-11-13T04:18:28.096Z,11.10
2018-11-13T04:19:15.105Z,11.10
2018-11-13T04:20:02.328Z,11.10
2018-11-13T04:20:49.088Z,11.10
2018-11-13T04:21:37.251Z,11.10
2018-11-13T04:22:24.149Z,11.10
2018-11-13T04:23:11.186Z,11.00
2018-11-13T04:23:59.009Z,11.10
2018-11-13T04:24:45.893Z,11.00
2018-11-13T04:25:33.415Z,11.10
2018-11-13T04:26:20.753Z,11.10
2018-11-13T04:27:07.949Z,11.10
2018-11-13T04:27:55.682Z,11.10
2018-11-13T04:28:42.928Z,11.10
2018-11-13T04:29:30.544Z,11.10
2018-11-13T04:30:19.821Z,11.10
2018-11-13T04:31:06.665Z,11.10
2018-11-13T04:31:53.656Z,11.10
2018-11-13T04:32:41.009Z,11.10
2018-11-13T04:33:28.174Z,11.10
2018-11-13T04:34:15.051Z,11.10
2018-11-13T04:35:02.149Z,11.10
2018-11-13T04:35:49.215Z,11.10
2018-11-13T04:36:36.367Z,11.10
2018-11-13T04:37:23.329Z,11.10
2018-11-13T04:38:10.317Z,11.10
2018-11-13T04:39:00.325Z,11.10
2018-11-13T04:39:47.277Z,11.10
2018-11-13T04:40:35.159Z,11.10
2018-11-13T04:41:22.665Z,11.10
2018-11-13T04:42:09.774Z,11.10
2018-11-13T04:42:56.622Z,11.10
2018-11-13T04:43:43.598Z,11.10
2018-11-13T04:44:30.649Z,11.10
2018-11-13T04:45:18.543Z,11.10
2018-11-13T04:46:05.673Z,11.10
2018-11-13T04:46:52.372Z,11.10
2018-11-13T04:47:39.573Z,11.10
2018-11-13T04:48:26.912Z,11.10
2018-11-13T04:49:13.811Z,11.10
2018-11-13T04:50:01.176Z,11.10
2018-11-13T04:50:48.942Z,11.10
2018-11-13T04:51:35.941Z,11.20
2018-11-13T04:52:23.308Z,11.10
2018-11-13T04:53:10.292Z,11.10
2018-11-13T04:53:57.751Z,11.10
2018-11-13T04:54:44.592Z,11.10
2018-11-13T04:55:31.569Z,11.10
2018-11-13T04:56:18.520Z,11.10
2018-11-13T04:57:06.466Z,11.10
2018-11-13T04:57:53.325Z,11.10
2018-11-13T04:58:40.291Z,11.10
2018-11-13T04:59:26.964Z,11.10
2018-11-13T05:00:16.060Z,11.20
2018-11-13T05:01:03.204Z,11.20
2018-11-13T05:01:50.127Z,11.20
2018-11-13T05:02:37.481Z,11.20
2018-11-13T05:03:24.569Z,11.20
2018-11-13T05:04:11.500Z,11.20
2018-11-13T05:04:58.601Z,11.20
2018-11-13T05:05:45.818Z,11.20
2018-11-13T05:06:36.912Z,11.20
2018-11-13T05:07:24.031Z,11.20
2018-11-13T05:08:11.050Z,11.20
2018-11-13T05:08:58.247Z,11.20
2018-11-13T05:09:45.015Z,11.20
2018-11-13T05:10:32.327Z,11.20
2018-11-13T05:11:19.605Z,11.20
2018-11-13T05:12:06.717Z,11.20
2018-11-13T05:12:53.556Z,11.10
2018-11-13T05:13:40.409Z,11.10
2018-11-13T05:14:27.288Z,11.10
2018-11-13T05:15:14.548Z,11.10
2018-11-13T05:16:02.051Z,11.10
2018-11-13T05:16:49.565Z,11.10
2018-11-13T05:17:36.788Z,11.10
2018-11-13T05:18:24.027Z,11.20
2018-11-13T05:19:10.986Z,11.10
2018-11-13T05:19:58.325Z,11.20
2018-11-13T05:20:45.370Z,11.10
2018-11-13T05:21:32.886Z,11.20
2018-11-13T05:22:20.005Z,11.10
2018-11-13T05:23:07.151Z,11.10
2018-11-13T05:23:54.003Z,11.10
2018-11-13T05:24:41.390Z,11.10
2018-11-13T05:25:28.612Z,11.10
2018-11-13T05:26:15.572Z,11.10
2018-11-13T05:27:02.545Z,11.10
2018-11-13T05:27:49.562Z,11.10
2018-11-13T05:28:36.561Z,11.10
2018-11-13T05:29:23.542Z,11.10
2018-11-13T05:30:15.186Z,11.10
2018-11-13T05:31:02.436Z,11.10
2018-11-13T05:31:49.361Z,11.00
2018-11-13T05:32:36.679Z,11.10
2018-11-13T05:33:23.863Z,11.00
2018-11-13T05:34:10.847Z,11.00
2018-11-13T05:34:57.727Z,11.00
2018-11-13T05:35:44.760Z,11.00
2018-11-13T05:36:31.764Z,11.00
2018-11-13T05:37:18.579Z,11.00
2018-11-13T05:38:05.859Z,11.00
2018-11-13T05:38:53.028Z,11.00
2018-11-13T05:39:41.136Z,11.00
2018-11-13T05:40:27.944Z,11.00
2018-11-13T05:41:15.048Z,11.00
2018-11-13T05:42:02.355Z,11.10
2018-11-13T05:42:49.303Z,11.00
2018-11-13T05:43:36.417Z,11.00
2018-11-13T05:44:23.566Z,11.00
2018-11-13T05:45:13.325Z,11.00
2018-11-13T05:46:00.527Z,11.00
2018-11-13T05:46:47.667Z,11.00
2018-11-13T05:47:34.899Z,11.00
2018-11-13T05:48:22.176Z,11.00
2018-11-13T05:49:10.299Z,11.00
2018-11-13T05:49:57.331Z,11.00
2018-11-13T05:50:44.427Z,11.00
2018-11-13T05:51:31.546Z,11.00
2018-11-13T05:52:18.573Z,11.00
2018-11-13T05:53:05.978Z,10.90
2018-11-13T05:53:52.968Z,10.90
2018-11-13T05:54:40.003Z,10.90
2018-11-13T05:55:27.125Z,10.90
2018-11-13T05:56:14.375Z,10.90
2018-11-13T05:57:01.336Z,10.90
2018-11-13T05:57:48.689Z,10.90
2018-11-13T05:58:35.564Z,10.90
2018-11-13T05:59:22.694Z,10.90
2018-11-13T06:00:38.637Z,10.80
2018-11-13T06:01:25.737Z,10.90
2018-11-13T06:02:26.563Z,10.90
2018-11-13T06:03:13.671Z,10.90
2018-11-13T06:04:00.890Z,10.80
2018-11-13T06:04:48.003Z,10.90
2018-11-13T06:05:35.160Z,10.80
2018-11-13T06:06:22.097Z,10.80
2018-11-13T06:07:09.172Z,10.80
2018-11-13T06:07:56.468Z,10.80
2018-11-13T06:08:46.345Z,10.80
2018-11-13T06:09:33.296Z,10.80
2018-11-13T06:10:20.427Z,10.70
2018-11-13T06:11:07.522Z,10.80
2018-11-13T06:11:54.972Z,10.80
2018-11-13T06:12:42.185Z,10.80
2018-11-13T06:13:29.562Z,10.80
2018-11-13T06:14:16.656Z,10.80
2018-11-13T06:15:03.549Z,10.80
2018-11-13T06:15:50.728Z,10.80
2018-11-13T06:16:37.687Z,10.80
2018-11-13T06:17:24.789Z,10.80
2018-11-13T06:18:11.847Z,10.80
2018-11-13T06:18:58.796Z,10.80
2018-11-13T06:19:46.846Z,10.80
2018-11-13T06:20:33.869Z,10.80
2018-11-13T06:21:20.939Z,10.80
2018-11-13T06:22:08.090Z,10.80
2018-11-13T06:22:55.455Z,10.80
2018-11-13T06:23:42.160Z,10.80
2018-11-13T06:24:29.653Z,10.80
2018-11-13T06:25:17.266Z,10.80
2018-11-13T06:26:04.214Z,10.80
2018-11-13T06:26:51.288Z,10.80
2018-11-13T06:27:38.787Z,10.80
2018-11-13T06:28:26.192Z,10.80
2018-11-13T06:29:13.370Z,10.80
2018-11-13T06:30:00.403Z,10.80
2018-11-13T06:30:48.056Z,10.80
2018-11-13T06:31:34.956Z,10.80
2018-11-13T06:32:22.314Z,10.80
2018-11-13T06:33:09.475Z,10.80
2018-11-13T06:33:56.709Z,10.80
2018-11-13T06:34:43.962Z,10.80
2018-11-13T06:35:31.399Z,10.80
2018-11-13T06:36:18.648Z,10.80
2018-11-13T06:37:05.951Z,10.80
2018-11-13T06:37:53.024Z,10.80
2018-11-13T06:38:40.132Z,10.80
2018-11-13T06:39:27.251Z,10.80
2018-11-13T06:40:14.244Z,10.80
2018-11-13T06:41:01.371Z,10.80
2018-11-13T06:41:48.258Z,10.80
2018-11-13T06:42:38.694Z,10.80
2018-11-13T06:43:25.866Z,10.90
2018-11-13T06:44:12.876Z,10.80
2018-11-13T06:44:59.939Z,10.80
2018-11-13T06:45:46.991Z,10.90
2018-11-13T06:46:33.810Z,10.90
2018-11-13T06:47:20.962Z,10.90
2018-11-13T06:48:08.088Z,10.90
2018-11-13T06:48:55.002Z,10.90
2018-11-13T06:49:41.753Z,10.90
2018-11-13T06:50:28.732Z,10.90
2018-11-13T06:51:15.820Z,10.90
2018-11-13T06:52:02.682Z,10.90
2018-11-13T06:52:50.316Z,10.90
2018-11-13T06:54:13.222Z,10.90
2018-11-13T06:55:20.816Z,10.90
2018-11-13T06:56:07.819Z,10.90
2018-11-13T06:56:57.213Z,10.90
2018-11-13T06:57:43.993Z,10.90
2018-11-13T06:58:31.228Z,10.90
2018-11-13T06:59:18.103Z,10.90
2018-11-13T07:00:06.481Z,10.90
2018-11-13T07:00:53.617Z,10.90
2018-11-13T07:01:40.528Z,10.90
2018-11-13T07:02:27.617Z,10.90
2018-11-13T07:03:14.845Z,10.90
2018-11-13T07:04:02.171Z,10.90
2018-11-13T07:04:49.081Z,10.90
2018-11-13T07:05:36.302Z,10.90
2018-11-13T07:06:23.448Z,10.90
2018-11-13T07:07:10.525Z,10.90
2018-11-13T07:07:57.647Z,11.00
2018-11-13T07:08:44.893Z,11.00
2018-11-13T07:09:32.001Z,11.00
2018-11-13T07:10:20.262Z,11.10
2018-11-13T07:11:07.263Z,11.10
2018-11-13T07:11:54.332Z,11.10
2018-11-13T07:12:42.582Z,11.10
2018-11-13T07:13:31.318Z,11.10
2018-11-13T07:14:18.498Z,11.20
2018-11-13T07:15:07.034Z,11.20
2018-11-13T07:15:54.037Z,11.20
2018-11-13T07:16:45.870Z,11.20
2018-11-13T07:17:32.791Z,11.20
2018-11-13T07:18:19.790Z,11.20
2018-11-13T07:19:06.644Z,11.20
2018-11-13T07:19:53.533Z,11.20
2018-11-13T07:20:40.421Z,11.20
2018-11-13T07:21:27.535Z,11.20
2018-11-13T07:22:14.800Z,11.20
2018-11-13T07:23:01.849Z,11.20
2018-11-13T07:23:48.910Z,11.20
2018-11-13T07:24:36.007Z,11.20
2018-11-13T07:25:22.894Z,11.20
2018-11-13T07:26:09.577Z,11.20
2018-11-13T07:26:56.850Z,11.20
2018-11-13T07:27:44.134Z,11.30
2018-11-13T07:28:31.358Z,11.20
2018-11-13T07:29:18.314Z,11.20
2018-11-13T07:30:07.093Z,11.20
2018-11-13T07:30:53.914Z,11.20
2018-11-13T07:31:40.935Z,11.30
2018-11-13T07:32:27.761Z,11.30
2018-11-13T07:33:14.677Z,11.20
2018-11-13T07:34:02.082Z,11.30
2018-11-13T07:34:48.983Z,11.20
2018-11-13T07:35:35.977Z,11.20
2018-11-13T07:36:23.037Z,11.20
2018-11-13T07:37:10.132Z,11.30
2018-11-13T07:37:58.624Z,11.30
2018-11-13T07:38:45.720Z,11.30
2018-11-13T07:39:33.343Z,11.30
2018-11-13T07:40:21.176Z,11.20
2018-11-13T07:41:08.556Z,11.30
2018-11-13T07:41:55.730Z,11.20
2018-11-13T07:42:42.896Z,11.20
2018-11-13T07:43:30.325Z,11.30
2018-11-13T07:44:17.380Z,11.20
2018-11-13T07:45:05.225Z,11.30
2018-11-13T07:45:52.338Z,11.30
2018-11-13T07:46:39.375Z,11.30
2018-11-13T07:47:26.624Z,11.30
2018-11-13T07:48:13.658Z,11.30
2018-11-13T07:49:00.706Z,11.30
2018-11-13T07:49:47.548Z,11.30
2018-11-13T07:50:34.558Z,11.30
2018-11-13T07:51:21.601Z,11.40
2018-11-13T07:52:08.629Z,11.40
2018-11-13T07:52:55.794Z,11.40
2018-11-13T07:53:42.958Z,11.40
2018-11-13T07:54:30.245Z,11.40
2018-11-13T07:55:17.459Z,11.40
2018-11-13T07:56:04.733Z,11.40
2018-11-13T07:56:51.775Z,11.40
2018-11-13T07:57:38.905Z,11.40
2018-11-13T07:58:25.713Z,11.40
2018-11-13T07:59:12.776Z,11.40
2018-11-13T08:00:00.049Z,11.40
2018-11-13T08:00:47.034Z,11.40
2018-11-13T08:01:34.295Z,11.40
2018-11-13T08:02:21.153Z,11.40
2018-11-13T08:03:39.958Z,11.40
2018-11-13T08:04:27.003Z,11.50
2018-11-13T08:05:14.089Z,11.50
2018-11-13T08:06:02.478Z,11.50
2018-11-13T08:06:49.416Z,11.50
2018-11-13T08:07:36.317Z,11.50
2018-11-13T08:08:23.356Z,11.50
2018-11-13T08:09:10.344Z,11.50
2018-11-13T08:09:57.324Z,11.50
2018-11-13T08:10:44.330Z,11.50
2018-11-13T08:11:31.346Z,11.50
2018-11-13T08:12:18.319Z,11.50
2018-11-13T08:13:05.441Z,11.50
2018-11-13T08:13:52.388Z,11.50
2018-11-13T08:14:39.429Z,11.50
2018-11-13T08:15:26.433Z,11.50
2018-11-13T08:16:13.474Z,11.50
2018-11-13T08:17:00.587Z,11.50
2018-11-13T08:17:47.715Z,11.50
2018-11-13T08:18:34.865Z,11.60
2018-11-13T08:19:21.974Z,11.60
2018-11-13T08:20:11.382Z,11.50
2018-11-13T08:20:58.336Z,11.50
2018-11-13T08:21:45.600Z,11.50
2018-11-13T08:22:32.544Z,11.50
2018-11-13T08:23:19.622Z,11.50
2018-11-13T08:24:06.801Z,11.50
2018-11-13T08:24:54.421Z,11.50
2018-11-13T08:25:41.329Z,11.40
2018-11-13T08:26:28.215Z,11.50
2018-11-13T08:27:15.220Z,11.40
2018-11-13T08:28:02.287Z,11.40
2018-11-13T08:28:49.350Z,11.40
2018-11-13T08:29:36.587Z,11.40
2018-11-13T08:30:23.450Z,11.40
2018-11-13T08:31:10.566Z,11.40
2018-11-13T08:31:57.723Z,11.50
2018-11-13T08:32:45.418Z,11.50
2018-11-13T08:33:32.557Z,11.50
2018-11-13T08:34:19.735Z,11.50
2018-11-13T08:35:07.429Z,11.50
2018-11-13T08:35:54.275Z,11.50
2018-11-13T08:36:41.905Z,11.50
2018-11-13T08:37:28.893Z,11.50
2018-11-13T08:38:16.138Z,11.60
2018-11-13T08:39:04.576Z,11.60
2018-11-13T08:39:51.558Z,11.60
2018-11-13T08:40:38.649Z,11.60
2018-11-13T08:41:25.681Z,11.70
2018-11-13T08:42:12.647Z,11.70
2018-11-13T08:42:59.732Z,11.70
2018-11-13T08:43:46.920Z,11.80
2018-11-13T08:44:33.631Z,11.80
2018-11-13T08:45:20.751Z,11.80
2018-11-13T08:46:07.944Z,11.90
2018-11-13T08:46:54.676Z,11.90
2018-11-13T08:47:42.205Z,11.90
2018-11-13T08:48:29.260Z,12.00
2018-11-13T08:49:16.192Z,12.10
2018-11-13T08:50:03.057Z,12.10
2018-11-13T08:50:50.162Z,12.10
2018-11-13T08:51:37.194Z,12.10
2018-11-13T08:52:24.119Z,12.10
2018-11-13T08:53:11.093Z,12.10
2018-11-13T08:53:57.943Z,12.10
2018-11-13T08:54:48.910Z,12.10
2018-11-13T08:55:36.126Z,12.20
2018-11-13T08:56:23.107Z,12.30
2018-11-13T08:57:10.462Z,12.40
2018-11-13T08:57:57.306Z,12.50
2018-11-13T08:58:44.474Z,12.70
2018-11-13T08:59:31.825Z,12.80
2018-11-13T09:00:19.478Z,12.90
2018-11-13T09:01:06.734Z,13.00
2018-11-13T09:01:53.795Z,13.00
2018-11-13T09:02:41.327Z,12.90
2018-11-13T09:03:28.334Z,12.90
2018-11-13T09:04:15.309Z,13.00
2018-11-13T09:05:02.422Z,12.90
2018-11-13T09:05:49.312Z,12.90
2018-11-13T09:06:36.357Z,12.90
2018-11-13T09:07:29.288Z,13.00
2018-11-13T09:08:16.972Z,13.10
2018-11-13T09:09:06.141Z,13.00
2018-11-13T09:09:52.833Z,13.00
2018-11-13T09:10:40.663Z,13.10
2018-11-13T09:11:27.759Z,13.10
2018-11-13T09:12:15.132Z,13.20
2018-11-13T09:13:02.270Z,13.20
2018-11-13T09:13:49.424Z,13.20
2018-11-13T09:14:36.441Z,13.10
2018-11-13T09:15:23.681Z,13.10
2018-11-13T09:16:10.987Z,13.10
2018-11-13T09:16:58.157Z,13.10
2018-11-13T09:17:46.824Z,13.10
2018-11-13T09:18:34.232Z,13.10
2018-11-13T09:19:21.090Z,13.10
2018-11-13T09:20:14.072Z,13.20
2018-11-13T09:21:00.498Z,13.20
2018-11-13T09:21:47.724Z,13.20
2018-11-13T09:22:35.032Z,13.30
2018-11-13T09:23:22.199Z,13.30
2018-11-13T09:24:09.297Z,13.30
2018-11-13T09:24:56.221Z,13.30
2018-11-13T09:25:43.413Z,13.40
2018-11-13T09:26:30.232Z,13.40
2018-11-13T09:27:17.403Z,13.50
2018-11-13T09:28:04.632Z,13.60
2018-11-13T09:28:51.609Z,13.70
2018-11-13T09:29:38.383Z,13.70
2018-11-13T09:30:25.499Z,13.90
2018-11-13T09:31:12.403Z,13.90
2018-11-13T09:31:59.310Z,14.00
2018-11-13T09:32:46.906Z,14.00
2018-11-13T09:33:34.040Z,14.00
2018-11-13T09:34:21.357Z,14.00
2018-11-13T09:35:09.732Z,13.90
2018-11-13T09:35:56.773Z,14.00
2018-11-13T09:36:44.101Z,14.00
2018-11-13T09:37:31.262Z,14.10
2018-11-13T09:38:18.381Z,14.10
2018-11-13T09:39:08.797Z,14.20
2018-11-13T09:39:55.950Z,14.10
2018-11-13T09:40:42.773Z,14.30
2018-11-13T09:41:29.744Z,14.20
2018-11-13T09:42:16.933Z,14.10
2018-11-13T09:43:03.845Z,14.20
2018-11-13T09:43:50.827Z,14.20
2018-11-13T09:44:37.765Z,14.30
2018-11-13T09:45:24.750Z,14.30
2018-11-13T09:46:11.774Z,14.30
2018-11-13T09:46:58.679Z,14.20
2018-11-13T09:47:45.898Z,14.20
2018-11-13T09:48:32.850Z,14.30
2018-11-13T09:49:19.947Z,14.30
2018-11-13T09:50:09.102Z,14.40
2018-11-13T09:50:56.253Z,14.20
2018-11-13T09:51:42.947Z,14.20
2018-11-13T09:52:29.619Z,14.30
2018-11-13T09:53:16.773Z,14.40
2018-11-13T09:54:03.683Z,14.40
2018-11-13T09:54:53.638Z,14.30
2018-11-13T09:55:40.589Z,14.30
2018-11-13T09:56:27.715Z,14.40
2018-11-13T09:57:14.591Z,14.40
2018-11-13T09:58:01.645Z,14.40
2018-11-13T09:58:48.938Z,14.30
2018-11-13T09:59:35.732Z,14.40
2018-11-13T10:00:24.119Z,14.40
2018-11-13T10:01:11.740Z,14.50
2018-11-13T10:01:59.572Z,14.60
2018-11-13T10:02:57.287Z,14.70
2018-11-13T10:03:44.270Z,14.70
2018-11-13T10:04:31.176Z,14.90
2018-11-13T10:05:18.796Z,14.80
2018-11-13T10:06:05.824Z,15.00
2018-11-13T10:06:53.203Z,15.00
2018-11-13T10:07:40.746Z,14.80
2018-11-13T10:08:28.057Z,14.90
2018-11-13T10:09:15.318Z,14.90
2018-11-13T10:10:02.278Z,14.90
2018-11-13T10:10:49.690Z,15.10
2018-11-13T10:11:36.754Z,15.10